ホノルル の空港の天気 - METARとTAF

ホノルル国際空港 ( PHNL / HNL ) - アメリカ ハワイ州ホノルル
飛行場実況気象(Metar)
観測時間01/19 00:53 HST (01/19 10:53 UTC)
風向・風速北北東 3m/s
視程10km以上
天気現象
少しの雲 雲底高度 700m
気温22.8℃
湿度71%
気圧1019.3hPa
METARPHNL 191053Z 03006KT 10SM FEW023 23/17 A3010 RMK AO2 SLP193 T02280172 $
過去の天気等 Google飛行場航空写真 Wunderground天気予報

過去48時間のMETAR

飛行場予報(TAF)
発表時間: 1/18 23:21 HST (1/19 09:21 UTC)
予報対象時間: 18日23時 HST ~ 20日2時 HST
風向・風速北東 4m/s
視程10km以上
少しの雲 雲底高度 760m
全天の4割程度の雲 雲底高度 1370m
19日10時 HST から
風向・風速東 7m/s 瞬間風速 11m/s
視程10km以上
少しの雲 雲底高度 760m
全天の4割程度の雲 雲底高度 1370m
19日19時 HST から
風向・風速東北東 4m/s
視程10km以上
少しの雲 雲底高度 760m
全天の4割程度の雲 雲底高度 1520m
PHNL 190921Z 1909/2012 05007KT P6SM FEW025 SCT045
FM192000 08014G22KT P6SM FEW025 SCT045
FM200500 06008KT P6SM FEW025 SCT050